Etusivu
METAR-TAF:

METAR-TAF

Lentoasemat :

Saint-Étienne, Ranska

Leveyspiiri: 45-32N, Pituuspiiri: 004-18E, korkeus merenpinnasta: 404 m

Tämänhetkinen sää

Tämä raportti tehtiin 25 minuuttia sitten, kello 19.30 UTC
Tuuli 2 kn kaakosta
Lämpötila 19°C
Kosteus 78%
Ilmanpaine 1021 hPa
Näkyvyys 10 km tai enemmän
ei pilviä alle 1500 m:ssä eikä cumulonimbus-pilviä

METAR: LFMH 231930Z AUTO 14002KT CAVOK 19/15 Q1021 NOSIG

Aika: 21:55 (19:55 UTC)

Sääennuste

Tämä raportti tehtiin 5 tuntia ja 55 minuuttia sitten, kello 14.00 UTC
Ennuste voimassa 23. päivästä klo 15 UTC - 24. päivään klo 15 UTC
Tuuli 3 kn eri suunnista
Näkyvyys 10 km tai enemmän
ei pilviä alle 1500 m:ssä eikä cumulonimbus-pilviä

TAF: LFMH 231400Z 2315/2415 VRB03KT CAVOK

Säähavainnot ja -ennusteet yli 4000 lentoasemalta (METAR- ja TAF-raportit).

Käytössä olevat sääasemat on merkitty karttaan keltaisilla ja punaisilla pisteillä.

Aseta hiiri pisteen päälle nähdäksesi sääaseman nimen.

Klikkaa sitten nähdäksesi säähavainnot ja -ennusteet.

Kartan vaihtaminen: klikkaa mustalla rastilla varustettuja vihreitä pisteitä, niin voit zoomata sisään; viivalla varustettua vihreää pistettä, niin voit zoomata ulos tai vihreitä nuolia, niin pääset viereisille kartoille.


METAR-TAF: